Fort Eustis, Virginia
Current Conditions -  °F | °C
As of 5:58 PM on Saturday 20 Dec 2014 (Local Time) from KFAF Reporting Station
Broken Clouds Broken Clouds  
Wind Chill: 35°   Ceiling: 10000
Heat Index: 35°   Visibility: 10mi
Dew Point: 26°   Wind: 1mph
Humidity: 71%   Direction: 40°NE
Pressure: 30.27"   Gusts: NA
Location:  37.13°N, 76.61°W
Report Text: KFAF 202258Z AUTO 04001KT 10SM BKN100 02/M03 A3027 RMK AO2 SLP254 T00151033 $
Loading
Personal Weather Stations






























Interactive Weather Map New forecast layout! Learn more

10-Day Weather Forecast

Advertisements
Track Severe Weather on mobile